Flight Track Log - Related Links

Times and Time Zones

All times are in EDT time to prevent confusion due to time zone crossing. See the SWA2800 flight status page for this flight to view local times or setup timezone preferences in your user account.

Time Position Orientation Groundspeed Altitude Reporting Facility
EDT Latitude Longitude Course Direction KTS MPH feet Rate Location/Type
Fri 07:55:59 AM 29.6289 -95.2633 150° Southeast 163 188 600  Level Houston Center
Fri 07:56:48 AM 29.5953 -95.2411 150° Southeast 186 214 2,100 2,172 Climbing Houston Center
Fri 07:57:55 AM 29.5492 -95.1961 140° Southeast 237 273 4,800 2,800 Climbing Houston Center
Fri 07:59:18 AM 29.5889 -95.0822 68° East 273 314 9,100 2,750 Climbing Houston Center
Fri 08:00:19 AM 29.6164 -94.9931 70° East 298 343 11,400 2,410 Climbing Houston Center
Fri 08:01:20 AM 29.6192 -94.8922 88° East 337 388 14,000 2,508 Climbing Houston Center
Fri 08:02:21 AM 29.5247 -94.8653 166° South 350 403 16,500 2,508 Climbing Houston Center
Fri 08:03:22 AM 29.4253 -94.8392 167° South 364 419 19,100 2,430 Climbing Houston Center
Fri 08:04:22 AM 29.3325 -94.7817 152° Southeast 377 434 21,400 2,033 Climbing Houston Center
Fri 08:05:23 AM 29.2397 -94.7172 149° Southeast 387 445 23,200 1,918 Climbing Houston Center
Fri 08:06:24 AM 29.1417 -94.6503 149° Southeast 404 465 25,300 2,016 Climbing Houston Center
Fri 08:07:25 AM 29.0831 -94.5347 120° Southeast 432 497 27,300 1,623 Climbing Houston Center
Fri 08:08:26 AM 29.0422 -94.4014 109° East 445 512 28,600 1,426 Climbing Houston Center
Fri 08:09:27 AM 28.9997 -94.2650 110° East 456 525 30,200 1,525 Climbing Houston Center
Fri 08:10:28 AM 28.9714 -94.1206 103° East 466 536 31,700 1,525 Climbing Houston Center
Fri 08:11:29 AM 28.9711 -93.9719 90° East 471 542 33,300 1,623 Climbing Houston Center
Fri 08:12:30 AM 28.9731 -93.8058 89° East 468 539 35,000 1,475 Climbing Houston Center
Fri 08:13:31 AM 28.9722 -93.6581 90° East 468 539 36,300 984 Climbing Houston Center
Fri 08:14:32 AM 28.9722 -93.5139 90° East 460 529 37,000 344 Climbing Houston Center
Fri 08:15:33 AM 28.9711 -93.3653 90° East 467 537 37,000 -49 Level Houston Center
Fri 08:16:34 AM 28.9708 -93.2164 90° East 471 542 36,900  Descending Houston Center
Fri 08:17:35 AM 28.9708 -93.0686 90° East 471 542 37,000 49 Climbing Houston Center
Fri 08:18:36 AM 28.9703 -92.9189 90° East 473 544 37,000  Level Houston Center
Fri 08:19:37 AM 28.9689 -92.7422 90° East 469 540 37,000  Level Houston Center
Fri 08:20:38 AM 28.9767 -92.5922 87° East 481 554 37,000  Level Houston Center
Fri 08:21:39 AM 29.0406 -92.4589 61° Northeast 486 559 37,000  Level Houston Center
Fri 08:22:41 AM 29.1072 -92.3261 60° Northeast 483 556 37,000  Level Houston Center
Fri 08:23:42 AM 29.1728 -92.1925 61° Northeast 481 554 37,000  Level Houston Center
Fri 08:24:43 AM 29.2406 -92.0586 60° Northeast 485 558 37,000  Level Houston Center
Fri 08:25:44 AM 29.3081 -91.9258 60° Northeast 486 559 37,000  Level Houston Center
Fri 08:26:45 AM 29.3761 -91.7911 60° Northeast 488 562 37,000  Level Houston Center
Fri 08:27:46 AM 29.4608 -91.6344 58° Northeast 496 571 37,000  Level Houston Center
Fri 08:28:48 AM 29.5331 -91.5003 58° Northeast 495 570 37,000  Level Houston Center
Fri 08:29:49 AM 29.6036 -91.3661 59° Northeast 493 567 37,000  Level Houston Center
Fri 08:30:50 AM 29.6747 -91.2322 59° Northeast 492 566 37,000  Level Houston Center
Fri 08:31:51 AM 29.7475 -91.0972 58° Northeast 497 572 37,000  Level Houston Center
Fri 08:32:52 AM 29.8183 -90.9600 59° Northeast 500 575 37,000  Level Houston Center
Fri 08:33:54 AM 29.8817 -90.8192 63° Northeast 499 574 37,000  Level Houston Center
Fri 08:34:55 AM 29.9392 -90.6767 65° Northeast 492 566 37,000  Level Houston Center
Fri 08:35:56 AM 29.9894 -90.5297 68° East 493 567 37,000  Level Houston Center
Fri 08:36:57 AM 30.0331 -90.3503 74° East 486 559 37,000  Level Houston Center
Fri 08:37:59 AM 30.0225 -90.2039 95° East 463 533 37,000  Level Houston Center
Fri 08:39:00 AM 29.9797 -90.0722 111° Southeast 444 511 37,000  Level Houston Center
Fri 08:40:01 AM 29.9503 -89.9344 104° East 450 518 37,000  Level Houston Center
Fri 08:41:02 AM 29.9686 -89.7847 82° East 472 543 37,000  Level Houston Center
Fri 08:42:03 AM 30.0031 -89.6392 75° East 476 548 37,000 -49 Level Houston Center
Fri 08:43:05 AM 30.0469 -89.4942 71° East 482 555 36,900  Descending Houston Center
Fri 08:44:06 AM 30.1136 -89.3256 65° Northeast 487 560 37,000 49 Climbing Houston Center
Fri 08:45:07 AM 30.1692 -89.1819 66° East 492 566 37,000  Level Houston Center
Fri 08:46:08 AM 30.2242 -89.0400 66° East 487 560 37,000  Level Houston Center
Fri 08:47:10 AM 30.2839 -88.8825 66° East 491 565 37,000  Level Houston Center
Fri 08:48:11 AM 30.3386 -88.7392 66° East 489 563 37,000  Level Houston Center
Fri 08:49:12 AM 30.4014 -88.6006 62° Northeast 489 563 37,000  Level Houston Center
Fri 08:50:13 AM 30.4617 -88.4681 62° Northeast 471 542 37,000  Level Houston Center
Fri 08:51:15 AM 30.5203 -88.3353 63° Northeast 468 539 37,000  Level Houston Center
Fri 08:52:16 AM 30.5550 -88.1917 74° East 469 540 37,000  Level Houston Center
Fri 08:53:17 AM 30.5933 -88.0500 73° East 466 536 37,000  Level Houston Center
Fri 08:54:18 AM 30.6264 -87.9050 75° East 468 539 37,000  Level Houston Center
Fri 08:55:20 AM 30.6303 -87.7322 88° East 456 525 37,000  Level Houston Center
Fri 08:56:21 AM 30.5692 -87.6106 120° Southeast 440 506 37,000  Level Houston Center
Fri 08:57:22 AM 30.5031 -87.4956 124° Southeast 431 496 37,000  Level Houston Center
Fri 08:58:23 AM 30.4386 -87.3819 123° Southeast 423 487 37,000  Level Houston Center
Fri 08:59:25 AM 30.3744 -87.2686 123° Southeast 421 484 37,000  Level Houston Center
Fri 09:00:26 AM 30.3103 -87.1542 123° Southeast 424 488 37,000  Level Houston Center
Fri 09:01:27 AM 30.2392 -87.0272 123° Southeast 428 493 37,000  Level Houston Center
Fri 09:02:28 AM 30.1722 -86.9133 124° Southeast 431 496 37,000  Level Houston Center
Fri 09:03:29 AM 30.1050 -86.7983 124° Southeast 433 498 37,000  Level Houston Center
Fri 09:04:39 AM 30.0211 -86.6539 124° Southeast 433 498 37,000  Level Jacksonville Center
Fri 09:05:39 AM 29.9556 -86.5386 123° Southeast 433 498 37,000  Level Jacksonville Center
Fri 09:06:39 AM 29.8900 -86.4236 123° Southeast 433 498 37,000  Level Jacksonville Center
Fri 09:07:39 AM 29.8219 -86.3111 125° Southeast 433 498 37,000  Level Jacksonville Center
Fri 09:08:39 AM 29.7542 -86.1961 124° Southeast 433 498 37,000  Level Jacksonville Center
Fri 09:09:39 AM 29.6881 -86.0817 124° Southeast 433 498 37,000  Level Jacksonville Center
Fri 09:10:39 AM 29.6239 -85.9719 124° Southeast 428 493 37,000  Level Jacksonville Center
Fri 09:11:39 AM 29.5617 -85.8697 125° Southeast 434 499 37,000  Level Jacksonville Center
Fri 09:12:39 AM 29.4975 -85.7581 123° Southeast 428 493 37,000  Level Jacksonville Center
Fri 09:13:39 AM 29.4289 -85.6442 125° Southeast 428 493 37,000  Level Jacksonville Center
Fri 09:14:39 AM 29.3625 -85.5303 124° Southeast 433 498 37,000  Level Jacksonville Center
Fri 09:15:39 AM 29.2958 -85.4142 123° Southeast 433 498 37,000  Level Jacksonville Center
Fri 09:16:39 AM 29.2272 -85.3031 125° Southeast 433 498 37,000  Level Jacksonville Center
Fri 09:17:39 AM 29.1583 -85.1919 125° Southeast 433 498 37,000  Level Jacksonville Center
Fri 09:18:39 AM 29.0914 -85.0786 124° Southeast 433 498 37,000 -298 Level Jacksonville Center
Fri 09:20:40 AM 28.9475 -84.8389 124° Southeast 438 504 36,100 -630 Descending Miami Center
Fri 09:21:40 AM 28.8808 -84.7297 125° Southeast 439 505 35,100 -950 Descending Miami Center
Fri 09:22:40 AM 28.8119 -84.6161 125° Southeast 434 499 34,200 -900 Descending Miami Center
Fri 09:23:40 AM 28.7453 -84.5028 124° Southeast 434 499 33,300 -850 Descending Miami Center
Fri 09:24:40 AM 28.6894 -84.4161 126° Southeast 434 499 32,500 -950 Descending Miami Center
Fri 09:25:40 AM 28.6047 -84.2806 125° Southeast 434 499 31,400 -1,050 Descending Miami Center
Fri 09:26:40 AM 28.5397 -84.1700 124° Southeast 434 499 30,400 -1,000 Descending Miami Center
Fri 09:27:40 AM 28.4683 -84.0544 125° Southeast 440 506 29,400 -1,600 Descending Miami Center
Fri 09:28:40 AM 28.4028 -83.9467 125° Southeast 440 506 27,200 -2,200 Descending Miami Center
Fri 09:29:40 AM 28.3353 -83.8386 125° Southeast 429 494 25,000 -2,200 Descending Miami Center
Fri 09:30:40 AM 28.2733 -83.7383 125° Southeast 415 478 22,800 -2,050 Descending Miami Center
Fri 09:31:40 AM 28.2133 -83.6428 125° Southeast 393 452 20,900 -1,950 Descending Miami Center
Fri 09:32:40 AM 28.1528 -83.5522 127° Southeast 377 434 18,900 -1,900 Descending Miami Center
Fri 09:33:40 AM 28.0986 -83.4642 125° Southeast 360 414 17,100 -1,900 Descending Miami Center
Fri 09:34:40 AM 28.0461 -83.3789 125° Southeast 339 390 15,100 -2,000 Descending Miami Center
Fri 09:35:40 AM 27.9956 -83.2986 125° Southeast 334 384 13,100 -2,000 Descending Miami Center
Fri 09:36:40 AM 27.9511 -83.2231 124° Southeast 328 377 11,100 -1,650 Descending Miami Center
Fri 09:37:40 AM 27.9256 -83.1372 109° East 282 325 9,800 -1,450 Descending Miami Center
Fri 09:38:40 AM 27.9525 -83.0447 72° East 277 319 8,200 -1,550 Descending Miami Center
Fri 09:39:40 AM 27.9750 -82.9614 73° East 277 319 6,700 -1,031 Descending Miami Center
Fri 09:40:48 AM 28.0000 -82.8667 73° East 274 315 6,000 -328 Descending Tampa TRACON
Fri 09:41:48 AM 28.0333 -82.7833 66° East 261 300 6,000  Level Tampa TRACON
Fri 09:42:48 AM 28.0667 -82.7333 53° Northeast 246 283 6,000 -300 Level Tampa TRACON
Fri 09:43:48 AM 28.1167 -82.6667 50° Northeast 236 272 5,400 -500 Descending Tampa TRACON
Fri 09:44:48 AM 28.1500 -82.6167 53° Northeast 234 269 5,000 -450 Descending Tampa TRACON
Fri 09:45:48 AM 28.1833 -82.5500 60° Northeast 225 259 4,500 -750 Descending Tampa TRACON
Fri 09:46:48 AM 28.1333 -82.5167 150° Southeast 211 243 3,500 -1,140 Descending Tampa TRACON
Fri 09:47:49 AM 28.0833 -82.5333 196° South 191 220 2,200 -1,190 Descending Tampa TRACON
Fri 09:48:49 AM 28.0333 -82.5333 180° South 152 175 1,100 -900 Descending Tampa TRACON
Fri 09:49:49 AM 28.0000 -82.5333 180° South 136 157 400 -700 Descending Tampa TRACON
Fri 09:51:00 AM 27.9755 -82.5332 41° Northeast  Level Estimated
Fri 09:58:00 AM 27.9755 -82.5332 19° North  Level Estimated
Fri 09:59:00 AM 27.9755 -82.5332 19° North  Level Estimated

Login

Don't have an account? Register now (free) for customized features, flight alerts, and more!